sensor_id;sensor_type;location;lat;lon;timestamp;P1;durP1;ratioP1;P2;durP2;ratioP2
45236;SDS011;30973;51.442;3.580;2024-02-28T00:01:15;7.47;;;5.15;;
45236;SDS011;30973;51.442;3.580;2024-02-28T00:03:43;6.60;;;5.13;;
45236;SDS011;30973;51.442;3.580;2024-02-28T00:06:11;6.28;;;4.90;;
45236;SDS011;30973;51.442;3.580;2024-02-28T00:08:38;7.18;;;5.70;;
45236;SDS011;30973;51.442;3.580;2024-02-28T00:11:06;8.10;;;5.25;;
45236;SDS011;30973;51.442;3.580;2024-02-28T00:13:33;6.85;;;4.85;;
45236;SDS011;30973;51.442;3.580;2024-02-28T00:16:01;9.60;;;4.63;;
45236;SDS011;30973;51.442;3.580;2024-02-28T00:18:29;8.32;;;4.93;;
45236;SDS011;30973;51.442;3.580;2024-02-28T00:20:57;8.38;;;5.32;;
45236;SDS011;30973;51.442;3.580;2024-02-28T00:23:28;6.90;;;4.85;;
45236;SDS011;30973;51.442;3.580;2024-02-28T00:25:56;8.18;;;4.93;;
45236;SDS011;30973;51.442;3.580;2024-02-28T00:28:23;7.38;;;4.68;;
45236;SDS011;30973;51.442;3.580;2024-02-28T00:30:50;10.60;;;5.22;;
45236;SDS011;30973;51.442;3.580;2024-02-28T00:33:18;7.47;;;5.60;;
45236;SDS011;30973;51.442;3.580;2024-02-28T00:35:45;8.52;;;4.80;;
45236;SDS011;30973;51.442;3.580;2024-02-28T00:38:13;8.27;;;5.10;;
45236;SDS011;30973;51.442;3.580;2024-02-28T00:40:40;7.53;;;5.20;;
45236;SDS011;30973;51.442;3.580;2024-02-28T00:43:07;8.43;;;4.88;;
45236;SDS011;30973;51.442;3.580;2024-02-28T00:45:35;7.45;;;5.38;;
45236;SDS011;30973;51.442;3.580;2024-02-28T00:48:03;7.13;;;4.43;;
45236;SDS011;30973;51.442;3.580;2024-02-28T00:50:30;7.65;;;5.43;;
45236;SDS011;30973;51.442;3.580;2024-02-28T00:52:58;8.98;;;4.93;;
45236;SDS011;30973;51.442;3.580;2024-02-28T00:55:26;9.57;;;5.35;;
45236;SDS011;30973;51.442;3.580;2024-02-28T00:57:53;9.18;;;5.53;;
45236;SDS011;30973;51.442;3.580;2024-02-28T01:00:21;14.15;;;7.15;;
45236;SDS011;30973;51.442;3.580;2024-02-28T01:02:48;8.07;;;4.93;;
45236;SDS011;30973;51.442;3.580;2024-02-28T01:05:16;9.07;;;5.25;;
45236;SDS011;30973;51.442;3.580;2024-02-28T01:07:43;7.55;;;5.05;;
45236;SDS011;30973;51.442;3.580;2024-02-28T01:10:11;9.05;;;5.18;;
45236;SDS011;30973;51.442;3.580;2024-02-28T01:12:38;7.75;;;5.30;;
45236;SDS011;30973;51.442;3.580;2024-02-28T01:15:06;7.72;;;4.80;;
45236;SDS011;30973;51.442;3.580;2024-02-28T01:17:34;10.90;;;5.15;;
45236;SDS011;30973;51.442;3.580;2024-02-28T01:20:01;7.60;;;4.95;;
45236;SDS011;30973;51.442;3.580;2024-02-28T01:22:29;9.13;;;5.05;;
45236;SDS011;30973;51.442;3.580;2024-02-28T01:24:56;8.35;;;5.50;;
45236;SDS011;30973;51.442;3.580;2024-02-28T01:27:24;7.72;;;5.20;;
45236;SDS011;30973;51.442;3.580;2024-02-28T01:29:52;7.00;;;5.03;;
45236;SDS011;30973;51.442;3.580;2024-02-28T01:32:20;8.80;;;4.88;;
45236;SDS011;30973;51.442;3.580;2024-02-28T01:34:47;9.32;;;4.82;;
45236;SDS011;30973;51.442;3.580;2024-02-28T01:37:15;8.52;;;5.38;;
45236;SDS011;30973;51.442;3.580;2024-02-28T01:39:42;10.95;;;6.15;;
45236;SDS011;30973;51.442;3.580;2024-02-28T01:42:10;7.88;;;5.40;;
45236;SDS011;30973;51.442;3.580;2024-02-28T01:44:40;7.75;;;5.22;;
45236;SDS011;30973;51.442;3.580;2024-02-28T01:47:08;8.95;;;5.80;;
45236;SDS011;30973;51.442;3.580;2024-02-28T01:49:36;6.95;;;5.30;;
45236;SDS011;30973;51.442;3.580;2024-02-28T01:52:03;7.93;;;5.53;;
45236;SDS011;30973;51.442;3.580;2024-02-28T01:54:31;9.63;;;4.93;;
45236;SDS011;30973;51.442;3.580;2024-02-28T01:56:59;6.65;;;4.75;;
45236;SDS011;30973;51.442;3.580;2024-02-28T01:59:27;9.80;;;5.10;;
45236;SDS011;30973;51.442;3.580;2024-02-28T02:01:55;6.78;;;5.45;;
45236;SDS011;30973;51.442;3.580;2024-02-28T02:04:22;7.78;;;5.20;;
45236;SDS011;30973;51.442;3.580;2024-02-28T02:06:50;10.90;;;5.65;;
45236;SDS011;30973;51.442;3.580;2024-02-28T02:09:20;9.77;;;5.30;;
45236;SDS011;30973;51.442;3.580;2024-02-28T02:11:48;7.80;;;5.47;;
45236;SDS011;30973;51.442;3.580;2024-02-28T02:14:15;7.20;;;5.03;;
45236;SDS011;30973;51.442;3.580;2024-02-28T02:16:43;8.05;;;5.20;;
45236;SDS011;30973;51.442;3.580;2024-02-28T02:19:10;8.35;;;5.18;;
45236;SDS011;30973;51.442;3.580;2024-02-28T02:21:41;7.13;;;4.30;;
45236;SDS011;30973;51.442;3.580;2024-02-28T02:24:11;8.38;;;4.85;;
45236;SDS011;30973;51.442;3.580;2024-02-28T02:26:38;7.72;;;4.20;;
45236;SDS011;30973;51.442;3.580;2024-02-28T02:29:06;14.85;;;5.70;;
45236;SDS011;30973;51.442;3.580;2024-02-28T02:31:35;7.72;;;5.15;;
45236;SDS011;30973;51.442;3.580;2024-02-28T02:34:13;8.27;;;5.15;;
45236;SDS011;30973;51.442;3.580;2024-02-28T02:40:20;7.57;;;4.10;;
45236;SDS011;30973;51.442;3.580;2024-02-28T02:42:50;8.13;;;4.72;;
45236;SDS011;30973;51.442;3.580;2024-02-28T02:45:18;8.45;;;4.38;;
45236;SDS011;30973;51.442;3.580;2024-02-28T02:47:52;8.73;;;5.38;;
45236;SDS011;30973;51.442;3.580;2024-02-28T02:50:19;7.18;;;4.47;;
45236;SDS011;30973;51.442;3.580;2024-02-28T02:52:47;5.63;;;4.43;;
45236;SDS011;30973;51.442;3.580;2024-02-28T02:55:14;6.78;;;4.95;;
45236;SDS011;30973;51.442;3.580;2024-02-28T02:57:42;9.60;;;4.60;;
45236;SDS011;30973;51.442;3.580;2024-02-28T03:00:10;8.55;;;4.65;;
45236;SDS011;30973;51.442;3.580;2024-02-28T03:02:38;6.03;;;4.57;;
45236;SDS011;30973;51.442;3.580;2024-02-28T03:05:06;8.18;;;4.60;;
45236;SDS011;30973;51.442;3.580;2024-02-28T03:07:34;9.93;;;4.80;;
45236;SDS011;30973;51.442;3.580;2024-02-28T03:10:02;11.95;;;5.03;;
45236;SDS011;30973;51.442;3.580;2024-02-28T03:12:29;6.30;;;4.47;;
45236;SDS011;30973;51.442;3.580;2024-02-28T03:14:57;7.13;;;4.60;;
45236;SDS011;30973;51.442;3.580;2024-02-28T03:17:24;5.88;;;4.38;;
45236;SDS011;30973;51.442;3.580;2024-02-28T03:19:52;9.60;;;4.70;;
45236;SDS011;30973;51.442;3.580;2024-02-28T03:22:19;8.40;;;4.63;;
45236;SDS011;30973;51.442;3.580;2024-02-28T03:24:47;6.03;;;4.90;;
45236;SDS011;30973;51.442;3.580;2024-02-28T03:27:15;10.15;;;4.80;;
45236;SDS011;30973;51.442;3.580;2024-02-28T03:29:42;7.93;;;5.60;;
45236;SDS011;30973;51.442;3.580;2024-02-28T03:32:10;6.90;;;4.80;;
45236;SDS011;30973;51.442;3.580;2024-02-28T03:34:38;6.88;;;4.93;;
45236;SDS011;30973;51.442;3.580;2024-02-28T03:37:05;6.18;;;4.00;;
45236;SDS011;30973;51.442;3.580;2024-02-28T03:39:32;8.10;;;5.70;;
45236;SDS011;30973;51.442;3.580;2024-02-28T03:42:00;9.02;;;4.57;;
45236;SDS011;30973;51.442;3.580;2024-02-28T03:44:28;9.98;;;5.75;;
45236;SDS011;30973;51.442;3.580;2024-02-28T03:46:55;10.38;;;5.18;;
45236;SDS011;30973;51.442;3.580;2024-02-28T03:49:26;9.30;;;4.63;;
45236;SDS011;30973;51.442;3.580;2024-02-28T03:51:53;9.30;;;4.53;;
45236;SDS011;30973;51.442;3.580;2024-02-28T03:54:21;7.35;;;4.68;;
45236;SDS011;30973;51.442;3.580;2024-02-28T03:56:48;8.95;;;4.65;;
45236;SDS011;30973;51.442;3.580;2024-02-28T03:59:16;8.00;;;4.85;;
45236;SDS011;30973;51.442;3.580;2024-02-28T04:01:43;9.65;;;5.38;;
45236;SDS011;30973;51.442;3.580;2024-02-28T04:04:12;9.23;;;5.38;;
45236;SDS011;30973;51.442;3.580;2024-02-28T04:06:39;11.55;;;5.40;;
45236;SDS011;30973;51.442;3.580;2024-02-28T04:09:06;7.60;;;5.63;;
45236;SDS011;30973;51.442;3.580;2024-02-28T04:11:34;7.75;;;4.85;;
45236;SDS011;30973;51.442;3.580;2024-02-28T04:14:01;7.65;;;4.93;;
45236;SDS011;30973;51.442;3.580;2024-02-28T04:16:29;6.65;;;4.70;;
45236;SDS011;30973;51.442;3.580;2024-02-28T04:18:57;8.48;;;5.47;;
45236;SDS011;30973;51.442;3.580;2024-02-28T04:21:24;10.15;;;5.75;;
45236;SDS011;30973;51.442;3.580;2024-02-28T04:23:52;10.02;;;5.22;;
45236;SDS011;30973;51.442;3.580;2024-02-28T04:26:19;8.40;;;5.00;;
45236;SDS011;30973;51.442;3.580;2024-02-28T04:28:46;7.53;;;4.60;;
45236;SDS011;30973;51.442;3.580;2024-02-28T04:31:14;7.88;;;5.32;;
45236;SDS011;30973;51.442;3.580;2024-02-28T04:33:41;7.20;;;4.95;;
45236;SDS011;30973;51.442;3.580;2024-02-28T04:36:09;11.75;;;5.55;;
45236;SDS011;30973;51.442;3.580;2024-02-28T04:38:36;11.93;;;5.90;;
45236;SDS011;30973;51.442;3.580;2024-02-28T04:41:05;9.88;;;5.38;;
45236;SDS011;30973;51.442;3.580;2024-02-28T04:43:33;9.63;;;5.45;;
45236;SDS011;30973;51.442;3.580;2024-02-28T04:46:01;8.27;;;5.63;;
45236;SDS011;30973;51.442;3.580;2024-02-28T04:48:29;9.23;;;6.40;;
45236;SDS011;30973;51.442;3.580;2024-02-28T04:50:58;9.02;;;6.40;;
45236;SDS011;30973;51.442;3.580;2024-02-28T04:53:26;9.98;;;5.75;;
45236;SDS011;30973;51.442;3.580;2024-02-28T04:55:53;12.18;;;5.95;;
45236;SDS011;30973;51.442;3.580;2024-02-28T04:58:21;10.32;;;6.57;;
45236;SDS011;30973;51.442;3.580;2024-02-28T05:00:48;12.25;;;6.70;;
45236;SDS011;30973;51.442;3.580;2024-02-28T05:03:17;9.55;;;6.60;;
45236;SDS011;30973;51.442;3.580;2024-02-28T05:05:44;9.73;;;5.78;;
45236;SDS011;30973;51.442;3.580;2024-02-28T05:08:11;8.25;;;6.10;;
45236;SDS011;30973;51.442;3.580;2024-02-28T05:10:39;10.50;;;5.93;;
45236;SDS011;30973;51.442;3.580;2024-02-28T05:13:06;10.57;;;6.85;;
45236;SDS011;30973;51.442;3.580;2024-02-28T05:15:34;9.55;;;6.07;;
45236;SDS011;30973;51.442;3.580;2024-02-28T05:18:01;9.45;;;5.22;;
45236;SDS011;30973;51.442;3.580;2024-02-28T05:20:29;10.25;;;6.18;;
45236;SDS011;30973;51.442;3.580;2024-02-28T05:22:59;9.65;;;5.97;;
45236;SDS011;30973;51.442;3.580;2024-02-28T05:25:27;8.90;;;5.70;;
45236;SDS011;30973;51.442;3.580;2024-02-28T05:27:55;10.35;;;6.25;;
45236;SDS011;30973;51.442;3.580;2024-02-28T05:30:22;10.90;;;5.55;;
45236;SDS011;30973;51.442;3.580;2024-02-28T05:32:50;8.90;;;5.88;;
45236;SDS011;30973;51.442;3.580;2024-02-28T05:35:17;11.68;;;6.50;;
45236;SDS011;30973;51.442;3.580;2024-02-28T05:37:45;10.80;;;5.97;;
45236;SDS011;30973;51.442;3.580;2024-02-28T05:40:15;9.95;;;6.50;;
45236;SDS011;30973;51.442;3.580;2024-02-28T05:42:43;8.90;;;6.25;;
45236;SDS011;30973;51.442;3.580;2024-02-28T05:45:24;13.30;;;6.72;;
45236;SDS011;30973;51.442;3.580;2024-02-28T05:48:11;11.93;;;7.95;;
45236;SDS011;30973;51.442;3.580;2024-02-28T05:50:45;8.95;;;6.30;;
45236;SDS011;30973;51.442;3.580;2024-02-28T05:53:12;12.77;;;7.20;;
45236;SDS011;30973;51.442;3.580;2024-02-28T05:55:40;13.93;;;7.85;;
45236;SDS011;30973;51.442;3.580;2024-02-28T05:58:07;12.32;;;7.82;;
45236;SDS011;30973;51.442;3.580;2024-02-28T06:00:34;16.40;;;8.32;;
45236;SDS011;30973;51.442;3.580;2024-02-28T06:03:02;16.35;;;8.23;;
45236;SDS011;30973;51.442;3.580;2024-02-28T06:05:30;16.52;;;9.10;;
45236;SDS011;30973;51.442;3.580;2024-02-28T06:07:57;17.92;;;9.13;;
45236;SDS011;30973;51.442;3.580;2024-02-28T06:10:25;14.02;;;9.07;;
45236;SDS011;30973;51.442;3.580;2024-02-28T06:12:52;20.75;;;8.93;;
45236;SDS011;30973;51.442;3.580;2024-02-28T06:15:22;17.30;;;9.45;;
45236;SDS011;30973;51.442;3.580;2024-02-28T06:17:50;17.73;;;9.40;;
45236;SDS011;30973;51.442;3.580;2024-02-28T06:20:18;15.07;;;9.77;;
45236;SDS011;30973;51.442;3.580;2024-02-28T06:22:45;17.25;;;9.80;;
45236;SDS011;30973;51.442;3.580;2024-02-28T06:25:15;16.70;;;10.63;;
45236;SDS011;30973;51.442;3.580;2024-02-28T06:27:49;24.10;;;11.85;;
45236;SDS011;30973;51.442;3.580;2024-02-28T06:32:51;27.08;;;12.15;;
45236;SDS011;30973;51.442;3.580;2024-02-28T06:35:19;27.10;;;13.27;;
45236;SDS011;30973;51.442;3.580;2024-02-28T06:37:47;31.70;;;13.27;;
45236;SDS011;30973;51.442;3.580;2024-02-28T06:40:16;31.38;;;14.75;;
45236;SDS011;30973;51.442;3.580;2024-02-28T06:42:44;30.52;;;14.98;;
45236;SDS011;30973;51.442;3.580;2024-02-28T06:45:12;31.85;;;14.45;;
45236;SDS011;30973;51.442;3.580;2024-02-28T06:47:39;32.45;;;14.68;;
45236;SDS011;30973;51.442;3.580;2024-02-28T06:50:07;30.35;;;13.95;;
45236;SDS011;30973;51.442;3.580;2024-02-28T06:52:35;29.88;;;13.73;;
45236;SDS011;30973;51.442;3.580;2024-02-28T06:55:02;31.33;;;15.98;;
45236;SDS011;30973;51.442;3.580;2024-02-28T06:57:37;32.15;;;15.27;;
45236;SDS011;30973;51.442;3.580;2024-02-28T07:00:06;30.13;;;15.48;;
45236;SDS011;30973;51.442;3.580;2024-02-28T07:02:37;28.23;;;14.75;;
45236;SDS011;30973;51.442;3.580;2024-02-28T07:05:05;33.67;;;16.08;;
45236;SDS011;30973;51.442;3.580;2024-02-28T07:07:33;28.75;;;14.63;;
45236;SDS011;30973;51.442;3.580;2024-02-28T07:10:02;30.58;;;15.50;;
45236;SDS011;30973;51.442;3.580;2024-02-28T07:12:31;31.65;;;15.43;;
45236;SDS011;30973;51.442;3.580;2024-02-28T07:14:58;25.85;;;13.68;;
45236;SDS011;30973;51.442;3.580;2024-02-28T07:17:26;25.63;;;13.32;;
45236;SDS011;30973;51.442;3.580;2024-02-28T07:19:53;24.25;;;12.55;;
45236;SDS011;30973;51.442;3.580;2024-02-28T07:22:21;32.35;;;14.75;;
45236;SDS011;30973;51.442;3.580;2024-02-28T07:24:48;32.53;;;13.82;;
45236;SDS011;30973;51.442;3.580;2024-02-28T07:27:16;30.17;;;14.88;;
45236;SDS011;30973;51.442;3.580;2024-02-28T07:29:43;31.02;;;14.07;;
45236;SDS011;30973;51.442;3.580;2024-02-28T07:32:11;30.13;;;14.80;;
45236;SDS011;30973;51.442;3.580;2024-02-28T07:34:39;30.88;;;14.80;;
45236;SDS011;30973;51.442;3.580;2024-02-28T07:37:06;31.17;;;14.38;;
45236;SDS011;30973;51.442;3.580;2024-02-28T07:39:33;32.03;;;14.48;;
45236;SDS011;30973;51.442;3.580;2024-02-28T07:42:01;30.58;;;14.35;;
45236;SDS011;30973;51.442;3.580;2024-02-28T07:44:28;25.33;;;13.38;;
45236;SDS011;30973;51.442;3.580;2024-02-28T07:46:59;31.08;;;14.63;;
45236;SDS011;30973;51.442;3.580;2024-02-28T07:49:27;25.23;;;14.00;;
45236;SDS011;30973;51.442;3.580;2024-02-28T07:51:54;22.23;;;13.40;;
45236;SDS011;30973;51.442;3.580;2024-02-28T07:54:22;24.40;;;13.25;;
45236;SDS011;30973;51.442;3.580;2024-02-28T07:56:50;27.70;;;13.48;;
45236;SDS011;30973;51.442;3.580;2024-02-28T07:59:18;22.80;;;14.05;;
45236;SDS011;30973;51.442;3.580;2024-02-28T08:01:45;19.45;;;12.88;;
45236;SDS011;30973;51.442;3.580;2024-02-28T08:04:13;28.33;;;13.75;;
45236;SDS011;30973;51.442;3.580;2024-02-28T08:06:41;24.83;;;13.95;;
45236;SDS011;30973;51.442;3.580;2024-02-28T08:09:08;25.98;;;14.55;;
45236;SDS011;30973;51.442;3.580;2024-02-28T08:11:39;23.00;;;13.45;;
45236;SDS011;30973;51.442;3.580;2024-02-28T08:14:06;23.90;;;13.73;;
45236;SDS011;30973;51.442;3.580;2024-02-28T08:16:34;26.75;;;15.25;;
45236;SDS011;30973;51.442;3.580;2024-02-28T08:19:01;26.42;;;15.05;;
45236;SDS011;30973;51.442;3.580;2024-02-28T08:21:29;25.77;;;14.55;;
45236;SDS011;30973;51.442;3.580;2024-02-28T08:23:57;24.10;;;14.30;;
45236;SDS011;30973;51.442;3.580;2024-02-28T08:26:24;26.95;;;14.20;;
45236;SDS011;30973;51.442;3.580;2024-02-28T08:28:52;24.40;;;14.23;;
45236;SDS011;30973;51.442;3.580;2024-02-28T08:31:19;28.05;;;15.95;;
45236;SDS011;30973;51.442;3.580;2024-02-28T08:33:47;22.58;;;13.90;;
45236;SDS011;30973;51.442;3.580;2024-02-28T08:36:15;26.10;;;15.43;;
45236;SDS011;30973;51.442;3.580;2024-02-28T08:38:42;28.17;;;15.43;;
45236;SDS011;30973;51.442;3.580;2024-02-28T08:41:10;26.65;;;15.25;;
45236;SDS011;30973;51.442;3.580;2024-02-28T08:43:39;32.80;;;16.35;;
45236;SDS011;30973;51.442;3.580;2024-02-28T08:46:07;33.22;;;16.63;;
45236;SDS011;30973;51.442;3.580;2024-02-28T08:48:34;29.73;;;15.63;;
45236;SDS011;30973;51.442;3.580;2024-02-28T08:51:04;28.30;;;15.93;;
45236;SDS011;30973;51.442;3.580;2024-02-28T08:53:31;26.58;;;15.80;;
45236;SDS011;30973;51.442;3.580;2024-02-28T08:55:59;29.08;;;16.13;;
45236;SDS011;30973;51.442;3.580;2024-02-28T08:58:27;26.40;;;15.00;;
45236;SDS011;30973;51.442;3.580;2024-02-28T09:00:54;25.05;;;15.65;;
45236;SDS011;30973;51.442;3.580;2024-02-28T09:03:22;24.35;;;14.32;;
45236;SDS011;30973;51.442;3.580;2024-02-28T09:05:50;24.10;;;16.05;;
45236;SDS011;30973;51.442;3.580;2024-02-28T09:08:17;25.95;;;14.50;;
45236;SDS011;30973;51.442;3.580;2024-02-28T09:10:45;25.67;;;15.10;;
45236;SDS011;30973;51.442;3.580;2024-02-28T09:13:13;21.90;;;13.35;;
45236;SDS011;30973;51.442;3.580;2024-02-28T09:15:49;25.40;;;13.95;;
45236;SDS011;30973;51.442;3.580;2024-02-28T09:18:20;21.80;;;14.05;;
45236;SDS011;30973;51.442;3.580;2024-02-28T09:20:48;23.70;;;14.23;;
45236;SDS011;30973;51.442;3.580;2024-02-28T09:23:15;26.20;;;13.88;;
45236;SDS011;30973;51.442;3.580;2024-02-28T09:25:42;26.67;;;13.90;;
45236;SDS011;30973;51.442;3.580;2024-02-28T09:28:10;29.92;;;15.48;;
45236;SDS011;30973;51.442;3.580;2024-02-28T09:30:40;23.73;;;14.30;;
45236;SDS011;30973;51.442;3.580;2024-02-28T09:33:17;23.05;;;13.18;;
45236;SDS011;30973;51.442;3.580;2024-02-28T09:35:46;23.98;;;14.02;;
45236;SDS011;30973;51.442;3.580;2024-02-28T09:38:14;23.27;;;13.88;;
45236;SDS011;30973;51.442;3.580;2024-02-28T09:40:42;25.48;;;13.20;;
45236;SDS011;30973;51.442;3.580;2024-02-28T09:43:59;26.23;;;13.68;;
45236;SDS011;30973;51.442;3.580;2024-02-28T09:46:04;21.73;;;12.93;;
45236;SDS011;30973;51.442;3.580;2024-02-28T09:48:33;24.70;;;14.02;;
45236;SDS011;30973;51.442;3.580;2024-02-28T09:51:01;25.48;;;14.23;;
45236;SDS011;30973;51.442;3.580;2024-02-28T09:53:28;21.33;;;13.55;;
45236;SDS011;30973;51.442;3.580;2024-02-28T09:55:56;17.98;;;11.45;;
45236;SDS011;30973;51.442;3.580;2024-02-28T09:58:23;20.92;;;12.23;;
45236;SDS011;30973;51.442;3.580;2024-02-28T10:00:51;16.35;;;11.73;;
45236;SDS011;30973;51.442;3.580;2024-02-28T10:03:20;17.80;;;11.75;;
45236;SDS011;30973;51.442;3.580;2024-02-28T10:05:49;20.02;;;11.82;;
45236;SDS011;30973;51.442;3.580;2024-02-28T10:08:17;16.27;;;11.60;;
45236;SDS011;30973;51.442;3.580;2024-02-28T10:10:45;17.20;;;11.45;;
45236;SDS011;30973;51.442;3.580;2024-02-28T10:13:16;17.52;;;11.27;;
45236;SDS011;30973;51.442;3.580;2024-02-28T10:15:44;16.67;;;11.02;;
45236;SDS011;30973;51.442;3.580;2024-02-28T10:18:12;13.80;;;10.57;;
45236;SDS011;30973;51.442;3.580;2024-02-28T10:20:40;17.35;;;10.80;;
45236;SDS011;30973;51.442;3.580;2024-02-28T10:23:07;14.30;;;10.13;;
45236;SDS011;30973;51.442;3.580;2024-02-28T10:25:45;14.27;;;10.20;;
45236;SDS011;30973;51.442;3.580;2024-02-28T10:28:23;14.52;;;10.43;;
45236;SDS011;30973;51.442;3.580;2024-02-28T10:30:51;12.75;;;10.13;;
45236;SDS011;30973;51.442;3.580;2024-02-28T10:33:19;14.48;;;9.38;;
45236;SDS011;30973;51.442;3.580;2024-02-28T10:35:46;14.45;;;9.75;;
45236;SDS011;30973;51.442;3.580;2024-02-28T10:38:20;15.02;;;10.20;;
45236;SDS011;30973;51.442;3.580;2024-02-28T10:40:48;14.20;;;9.13;;
45236;SDS011;30973;51.442;3.580;2024-02-28T10:43:16;11.63;;;8.88;;
45236;SDS011;30973;51.442;3.580;2024-02-28T10:45:44;12.65;;;9.80;;
45236;SDS011;30973;51.442;3.580;2024-02-28T10:48:32;11.88;;;9.43;;
45236;SDS011;30973;51.442;3.580;2024-02-28T10:51:00;17.17;;;11.30;;
45236;SDS011;30973;51.442;3.580;2024-02-28T10:53:36;16.95;;;11.90;;
45236;SDS011;30973;51.442;3.580;2024-02-28T10:56:09;15.73;;;12.10;;
45236;SDS011;30973;51.442;3.580;2024-02-28T10:58:39;14.18;;;11.38;;
45236;SDS011;30973;51.442;3.580;2024-02-28T11:01:09;15.23;;;12.07;;
45236;SDS011;30973;51.442;3.580;2024-02-28T11:03:37;16.98;;;13.15;;
45236;SDS011;30973;51.442;3.580;2024-02-28T11:06:04;15.18;;;11.30;;
45236;SDS011;30973;51.442;3.580;2024-02-28T11:08:45;17.58;;;11.90;;
45236;SDS011;30973;51.442;3.580;2024-02-28T11:11:20;14.70;;;11.30;;
45236;SDS011;30973;51.442;3.580;2024-02-28T11:13:51;15.82;;;11.43;;
45236;SDS011;30973;51.442;3.580;2024-02-28T11:16:32;14.00;;;10.75;;
45236;SDS011;30973;51.442;3.580;2024-02-28T11:19:00;15.50;;;11.13;;
45236;SDS011;30973;51.442;3.580;2024-02-28T11:21:33;14.38;;;10.75;;
45236;SDS011;30973;51.442;3.580;2024-02-28T11:24:01;15.07;;;11.25;;
45236;SDS011;30973;51.442;3.580;2024-02-28T11:26:30;16.67;;;11.85;;
45236;SDS011;30973;51.442;3.580;2024-02-28T11:28:57;14.95;;;12.23;;
45236;SDS011;30973;51.442;3.580;2024-02-28T11:31:25;15.57;;;12.55;;
45236;SDS011;30973;51.442;3.580;2024-02-28T11:33:52;15.27;;;12.23;;
45236;SDS011;30973;51.442;3.580;2024-02-28T11:36:20;17.30;;;12.63;;
45236;SDS011;30973;51.442;3.580;2024-02-28T11:38:47;16.38;;;12.75;;
45236;SDS011;30973;51.442;3.580;2024-02-28T11:41:24;17.48;;;12.88;;
45236;SDS011;30973;51.442;3.580;2024-02-28T11:43:54;18.30;;;13.30;;
45236;SDS011;30973;51.442;3.580;2024-02-28T11:46:22;15.50;;;13.20;;
45236;SDS011;30973;51.442;3.580;2024-02-28T11:48:50;16.42;;;12.93;;
45236;SDS011;30973;51.442;3.580;2024-02-28T11:51:17;16.55;;;12.82;;
45236;SDS011;30973;51.442;3.580;2024-02-28T11:53:45;15.90;;;12.73;;
45236;SDS011;30973;51.442;3.580;2024-02-28T11:56:12;17.25;;;13.77;;
45236;SDS011;30973;51.442;3.580;2024-02-28T11:58:53;19.30;;;15.00;;
45236;SDS011;30973;51.442;3.580;2024-02-28T12:01:38;16.58;;;14.07;;
45236;SDS011;30973;51.442;3.580;2024-02-28T12:04:06;19.13;;;15.30;;
45236;SDS011;30973;51.442;3.580;2024-02-28T12:06:34;18.20;;;15.15;;
45236;SDS011;30973;51.442;3.580;2024-02-28T12:09:04;19.85;;;15.77;;
45236;SDS011;30973;51.442;3.580;2024-02-28T12:11:32;24.35;;;17.25;;
45236;SDS011;30973;51.442;3.580;2024-02-28T12:14:02;20.42;;;16.63;;
45236;SDS011;30973;51.442;3.580;2024-02-28T12:16:29;18.73;;;14.73;;
45236;SDS011;30973;51.442;3.580;2024-02-28T12:18:57;13.50;;;12.02;;
45236;SDS011;30973;51.442;3.580;2024-02-28T12:21:24;14.30;;;11.85;;
45236;SDS011;30973;51.442;3.580;2024-02-28T12:23:52;12.60;;;10.38;;
45236;SDS011;30973;51.442;3.580;2024-02-28T12:26:19;14.60;;;10.63;;
45236;SDS011;30973;51.442;3.580;2024-02-28T12:28:47;11.85;;;10.57;;
45236;SDS011;30973;51.442;3.580;2024-02-28T12:31:15;9.77;;;8.75;;
45236;SDS011;30973;51.442;3.580;2024-02-28T12:33:43;12.73;;;9.45;;
45236;SDS011;30973;51.442;3.580;2024-02-28T12:36:10;13.40;;;8.63;;
45236;SDS011;30973;51.442;3.580;2024-02-28T12:38:37;11.38;;;8.88;;
45236;SDS011;30973;51.442;3.580;2024-02-28T12:41:09;10.60;;;9.10;;
45236;SDS011;30973;51.442;3.580;2024-02-28T12:43:38;11.57;;;9.68;;
45236;SDS011;30973;51.442;3.580;2024-02-28T12:46:08;10.95;;;9.35;;
45236;SDS011;30973;51.442;3.580;2024-02-28T12:48:37;10.80;;;9.07;;
45236;SDS011;30973;51.442;3.580;2024-02-28T12:51:05;10.63;;;9.52;;
45236;SDS011;30973;51.442;3.580;2024-02-28T12:53:32;10.23;;;9.20;;
45236;SDS011;30973;51.442;3.580;2024-02-28T12:56:03;10.45;;;9.32;;
45236;SDS011;30973;51.442;3.580;2024-02-28T12:58:30;10.48;;;9.25;;
45236;SDS011;30973;51.442;3.580;2024-02-28T13:00:58;10.45;;;9.35;;
45236;SDS011;30973;51.442;3.580;2024-02-28T13:03:26;12.45;;;9.02;;
45236;SDS011;30973;51.442;3.580;2024-02-28T13:05:54;10.55;;;9.13;;
45236;SDS011;30973;51.442;3.580;2024-02-28T13:08:21;9.40;;;8.35;;
45236;SDS011;30973;51.442;3.580;2024-02-28T13:10:52;12.68;;;9.30;;
45236;SDS011;30973;51.442;3.580;2024-02-28T13:13:23;9.55;;;8.48;;
45236;SDS011;30973;51.442;3.580;2024-02-28T13:15:50;10.82;;;9.30;;
45236;SDS011;30973;51.442;3.580;2024-02-28T13:18:18;12.95;;;8.73;;
45236;SDS011;30973;51.442;3.580;2024-02-28T13:20:45;12.40;;;9.52;;
45236;SDS011;30973;51.442;3.580;2024-02-28T13:23:13;10.48;;;8.75;;
45236;SDS011;30973;51.442;3.580;2024-02-28T13:25:40;10.93;;;9.23;;
45236;SDS011;30973;51.442;3.580;2024-02-28T13:28:08;10.48;;;9.38;;
45236;SDS011;30973;51.442;3.580;2024-02-28T13:30:36;10.75;;;9.10;;
45236;SDS011;30973;51.442;3.580;2024-02-28T13:33:03;9.93;;;8.68;;
45236;SDS011;30973;51.442;3.580;2024-02-28T13:35:31;13.18;;;8.35;;
45236;SDS011;30973;51.442;3.580;2024-02-28T13:37:59;13.63;;;9.05;;
45236;SDS011;30973;51.442;3.580;2024-02-28T13:40:27;12.35;;;8.93;;
45236;SDS011;30973;51.442;3.580;2024-02-28T13:42:57;9.55;;;8.02;;
45236;SDS011;30973;51.442;3.580;2024-02-28T13:45:25;11.38;;;8.32;;
45236;SDS011;30973;51.442;3.580;2024-02-28T13:47:53;10.77;;;8.38;;
45236;SDS011;30973;51.442;3.580;2024-02-28T13:50:21;13.23;;;9.50;;
45236;SDS011;30973;51.442;3.580;2024-02-28T13:52:51;11.77;;;8.02;;
45236;SDS011;30973;51.442;3.580;2024-02-28T13:55:20;11.30;;;8.65;;
45236;SDS011;30973;51.442;3.580;2024-02-28T13:57:47;10.30;;;8.35;;
45236;SDS011;30973;51.442;3.580;2024-02-28T14:00:15;9.23;;;7.40;;
45236;SDS011;30973;51.442;3.580;2024-02-28T14:02:42;12.30;;;8.13;;
45236;SDS011;30973;51.442;3.580;2024-02-28T14:05:10;9.15;;;8.10;;
45236;SDS011;30973;51.442;3.580;2024-02-28T14:07:37;12.60;;;8.18;;
45236;SDS011;30973;51.442;3.580;2024-02-28T14:10:06;10.70;;;7.85;;
45236;SDS011;30973;51.442;3.580;2024-02-28T14:12:36;8.45;;;7.35;;
45236;SDS011;30973;51.442;3.580;2024-02-28T14:15:04;8.52;;;6.68;;
45236;SDS011;30973;51.442;3.580;2024-02-28T14:17:33;13.45;;;7.43;;
45236;SDS011;30973;51.442;3.580;2024-02-28T14:20:00;9.70;;;6.82;;
45236;SDS011;30973;51.442;3.580;2024-02-28T14:22:28;10.55;;;7.07;;
45236;SDS011;30973;51.442;3.580;2024-02-28T14:24:56;7.72;;;5.93;;
45236;SDS011;30973;51.442;3.580;2024-02-28T14:27:23;8.07;;;6.25;;
45236;SDS011;30973;51.442;3.580;2024-02-28T14:29:56;13.90;;;6.47;;
45236;SDS011;30973;51.442;3.580;2024-02-28T14:32:24;9.48;;;6.22;;
45236;SDS011;30973;51.442;3.580;2024-02-28T14:34:51;7.03;;;5.20;;
45236;SDS011;30973;51.442;3.580;2024-02-28T14:37:20;7.80;;;5.88;;
45236;SDS011;30973;51.442;3.580;2024-02-28T14:39:48;8.77;;;5.95;;
45236;SDS011;30973;51.442;3.580;2024-02-28T14:42:15;10.05;;;6.25;;
45236;SDS011;30973;51.442;3.580;2024-02-28T14:44:43;10.23;;;6.50;;
45236;SDS011;30973;51.442;3.580;2024-02-28T14:47:10;7.35;;;6.00;;